createdAt,value
2022-08-07T00:02:36.276Z,23.00
2022-08-07T00:05:04.150Z,23.00
2022-08-07T00:07:40.093Z,22.90
2022-08-07T00:10:26.516Z,22.90
2022-08-07T00:13:09.536Z,22.80
2022-08-07T00:15:46.073Z,22.80
2022-08-07T00:18:23.135Z,22.70
2022-08-07T00:21:08.147Z,22.70
2022-08-07T00:23:52.378Z,22.70
2022-08-07T00:26:59.102Z,22.60
2022-08-07T00:29:06.616Z,22.60
2022-08-07T00:31:37.474Z,22.60
2022-08-07T00:34:10.002Z,22.50
2022-08-07T00:36:43.112Z,22.50
2022-08-07T00:39:12.810Z,22.50
2022-08-07T00:42:01.890Z,22.40
2022-08-07T00:44:33.814Z,22.40
2022-08-07T00:47:03.442Z,22.30
2022-08-07T00:50:18.980Z,22.30
2022-08-07T00:52:20.817Z,22.20
2022-08-07T00:54:53.605Z,22.20
2022-08-07T00:57:25.789Z,22.10
2022-08-07T00:59:53.957Z,22.10
2022-08-07T01:02:28.377Z,22.10
2022-08-07T01:04:58.219Z,22.10
2022-08-07T01:07:27.621Z,22.00
2022-08-07T01:10:05.754Z,22.00
2022-08-07T01:12:38.796Z,22.00
2022-08-07T01:15:11.894Z,21.90
2022-08-07T01:17:44.278Z,21.90
2022-08-07T01:20:16.881Z,21.80
2022-08-07T01:22:46.647Z,21.80
2022-08-07T01:25:54.580Z,21.70
2022-08-07T01:28:01.744Z,21.70
2022-08-07T01:30:31.170Z,21.70
2022-08-07T01:32:58.822Z,21.60
2022-08-07T01:35:26.605Z,21.60
2022-08-07T01:38:13.849Z,21.60
2022-08-07T01:40:57.420Z,21.50
2022-08-07T01:43:26.119Z,21.50
2022-08-07T01:46:02.665Z,21.50
2022-08-07T01:48:32.537Z,21.50
2022-08-07T01:51:58.656Z,21.40
2022-08-07T01:54:09.151Z,21.40
2022-08-07T01:57:08.240Z,21.30
2022-08-07T02:00:13.687Z,21.30
2022-08-07T02:03:11.707Z,21.30
2022-08-07T02:05:59.441Z,21.20
2022-08-07T02:08:30.582Z,21.50
2022-08-07T02:11:00.175Z,21.20
2022-08-07T02:13:56.805Z,21.10
2022-08-07T02:16:33.152Z,21.10
2022-08-07T02:19:05.622Z,21.10
2022-08-07T02:21:57.028Z,21.00
2022-08-07T02:24:29.354Z,21.00
2022-08-07T02:27:01.166Z,21.00
2022-08-07T02:29:29.157Z,21.00
2022-08-07T02:31:57.891Z,20.90
2022-08-07T02:34:28.340Z,20.80
2022-08-07T02:37:00.736Z,20.90
2022-08-07T02:39:43.477Z,20.80
2022-08-07T02:42:17.970Z,20.80
2022-08-07T02:44:49.808Z,20.80
2022-08-07T02:47:44.832Z,20.80
2022-08-07T02:50:07.888Z,20.70
2022-08-07T02:53:06.379Z,20.70
2022-08-07T02:56:04.225Z,20.60
2022-08-07T02:58:27.489Z,22.30
2022-08-07T03:00:58.044Z,20.60
2022-08-07T03:03:50.192Z,20.60
2022-08-07T03:06:32.041Z,20.60
2022-08-07T03:09:02.903Z,20.50
2022-08-07T03:11:32.656Z,20.60
2022-08-07T03:14:06.124Z,20.50
2022-08-07T03:16:34.979Z,20.40
2022-08-07T03:19:02.443Z,20.40
2022-08-07T03:21:32.984Z,20.40
2022-08-07T03:24:18.359Z,20.40
2022-08-07T03:26:58.112Z,20.40
2022-08-07T03:29:46.013Z,20.30
2022-08-07T03:32:23.964Z,20.30
2022-08-07T03:35:00.994Z,20.30
2022-08-07T03:37:46.284Z,20.30
2022-08-07T03:40:22.218Z,20.30
2022-08-07T03:42:53.957Z,20.20
2022-08-07T03:45:30.918Z,20.20
2022-08-07T03:47:59.667Z,20.20
2022-08-07T03:50:28.621Z,20.10
2022-08-07T03:53:00.360Z,20.10
2022-08-07T03:55:53.101Z,20.10
2022-08-07T03:59:06.751Z,20.10
2022-08-07T04:01:11.672Z,20.00
2022-08-07T04:03:53.624Z,20.00
2022-08-07T04:06:37.208Z,20.00
2022-08-07T04:09:08.478Z,19.90
2022-08-07T04:12:26.571Z,20.00
2022-08-07T04:14:37.576Z,19.80
2022-08-07T04:18:11.165Z,19.80
2022-08-07T04:19:54.402Z,19.80
2022-08-07T04:22:28.905Z,19.80
2022-08-07T04:25:01.658Z,19.70
2022-08-07T04:27:36.181Z,19.70
2022-08-07T04:30:21.660Z,19.70
2022-08-07T04:32:59.867Z,19.60
2022-08-07T04:35:35.019Z,19.60
2022-08-07T04:38:13.134Z,19.50
2022-08-07T04:40:52.143Z,19.50
2022-08-07T04:44:12.566Z,19.50
2022-08-07T04:46:29.435Z,19.60
2022-08-07T04:49:25.813Z,19.50
2022-08-07T04:52:03.775Z,19.40
2022-08-07T04:54:50.434Z,19.40
2022-08-07T04:58:13.072Z,19.40
2022-08-07T05:00:59.009Z,19.30
2022-08-07T05:04:06.531Z,19.30
2022-08-07T05:07:27.589Z,19.30
2022-08-07T05:10:19.563Z,19.30
2022-08-07T05:14:54.506Z,19.30
2022-08-07T05:16:22.664Z,19.30
2022-08-07T05:18:56.787Z,19.30
2022-08-07T05:21:59.551Z,19.20
2022-08-07T05:24:20.848Z,19.20
2022-08-07T05:27:01.705Z,19.20
2022-08-07T05:29:38.807Z,19.20
2022-08-07T05:32:18.975Z,19.20
2022-08-07T05:34:49.640Z,19.20
2022-08-07T05:37:26.272Z,19.20
2022-08-07T05:40:13.979Z,19.30
2022-08-07T05:42:42.236Z,19.20
2022-08-07T05:45:47.055Z,19.60
2022-08-07T05:48:12.164Z,19.20
2022-08-07T05:50:42.893Z,19.20
2022-08-07T05:54:12.780Z,19.20
2022-08-07T05:56:03.795Z,19.20
2022-08-07T05:58:36.863Z,19.20
2022-08-07T06:01:10.526Z,19.20
2022-08-07T06:03:56.615Z,19.20
2022-08-07T06:06:29.489Z,19.30
2022-08-07T06:08:59.408Z,19.20
2022-08-07T06:11:27.194Z,19.20
2022-08-07T06:14:12.789Z,19.20
2022-08-07T06:16:49.942Z,19.30
2022-08-07T06:19:52.353Z,19.40
2022-08-07T06:22:14.940Z,19.40
2022-08-07T06:24:58.207Z,19.40
2022-08-07T06:27:44.131Z,19.50
2022-08-07T06:30:24.398Z,19.50
2022-08-07T06:33:04.102Z,19.60
2022-08-07T06:35:45.318Z,19.70
2022-08-07T06:38:20.462Z,19.80
2022-08-07T06:40:53.014Z,19.90
2022-08-07T06:43:23.612Z,20.00
2022-08-07T06:45:51.620Z,20.10
2022-08-07T06:48:25.262Z,20.20
2022-08-07T06:50:54.789Z,20.20
2022-08-07T06:55:29.352Z,19.90
2022-08-07T06:56:15.166Z,20.40
2022-08-07T07:00:14.488Z,20.50
2022-08-07T07:01:44.170Z,20.70
2022-08-07T07:04:28.258Z,20.80
2022-08-07T07:07:02.384Z,20.90
2022-08-07T07:09:38.249Z,21.00
2022-08-07T07:12:29.200Z,21.10
2022-08-07T07:15:36.084Z,21.20
2022-08-07T07:18:46.943Z,21.40
2022-08-07T07:21:40.273Z,21.50
2022-08-07T07:24:25.751Z,21.70
2022-08-07T07:26:56.147Z,21.90
2022-08-07T07:29:56.559Z,22.00
2022-08-07T07:32:19.074Z,22.10
2022-08-07T07:34:51.612Z,22.40
2022-08-07T07:37:44.268Z,22.60
2022-08-07T07:40:15.552Z,22.70
2022-08-07T07:42:50.909Z,22.90
2022-08-07T07:46:37.326Z,23.00
2022-08-07T07:48:35.154Z,23.10
2022-08-07T07:51:07.839Z,23.30
2022-08-07T07:53:51.350Z,23.50
2022-08-07T07:56:30.115Z,23.70
2022-08-07T07:59:00.269Z,23.80
2022-08-07T08:02:04.061Z,23.90
2022-08-07T08:04:20.187Z,24.20
2022-08-07T08:06:53.771Z,24.30
2022-08-07T08:09:29.455Z,24.50
2022-08-07T08:12:01.872Z,24.60
2022-08-07T08:14:36.206Z,24.70
2022-08-07T08:17:32.382Z,24.90
2022-08-07T08:20:18.780Z,25.10
2022-08-07T08:23:10.130Z,25.20
2022-08-07T08:26:03.350Z,25.40
2022-08-07T08:28:44.772Z,25.50
2022-08-07T08:31:30.309Z,25.60
2022-08-07T08:34:10.280Z,25.80
2022-08-07T08:36:40.774Z,25.90
2022-08-07T08:39:13.511Z,26.00
2022-08-07T08:41:57.587Z,26.10
2022-08-07T08:45:26.879Z,26.30
2022-08-07T08:48:18.568Z,26.40
2022-08-07T08:52:12.498Z,26.60
2022-08-07T08:54:44.997Z,26.70
2022-08-07T08:57:45.228Z,26.80
2022-08-07T09:00:13.915Z,26.90
2022-08-07T09:03:47.805Z,27.00
2022-08-07T09:06:22.384Z,27.10
2022-08-07T09:09:13.486Z,27.30
2022-08-07T09:12:30.488Z,27.40
2022-08-07T09:16:23.194Z,27.50
2022-08-07T09:19:03.430Z,27.60
2022-08-07T09:22:09.761Z,27.70
2022-08-07T09:24:58.748Z,27.90
2022-08-07T09:28:00.101Z,28.00
2022-08-07T09:30:46.462Z,28.10
2022-08-07T09:34:01.964Z,28.10
2022-08-07T09:36:46.640Z,28.20
2022-08-07T09:39:55.125Z,28.30
2022-08-07T09:43:00.261Z,28.30
2022-08-07T09:47:25.422Z,28.40
2022-08-07T09:50:02.458Z,28.60
2022-08-07T09:52:40.598Z,28.60
2022-08-07T09:56:03.933Z,28.80
2022-08-07T09:59:14.636Z,28.90
2022-08-07T10:02:16.312Z,28.90
2022-08-07T10:04:47.732Z,29.00
2022-08-07T10:08:21.249Z,29.10
2022-08-07T10:12:01.137Z,29.10
2022-08-07T10:15:15.317Z,29.30
2022-08-07T10:18:15.032Z,29.30
2022-08-07T10:21:50.338Z,29.40
2022-08-07T10:24:33.504Z,29.50
2022-08-07T10:27:53.160Z,29.60
2022-08-07T10:30:53.314Z,29.70
2022-08-07T10:34:05.645Z,29.80
2022-08-07T10:36:47.969Z,29.80
2022-08-07T10:40:03.551Z,29.80
2022-08-07T10:43:29.728Z,29.90
2022-08-07T10:46:30.037Z,30.00
2022-08-07T10:49:49.325Z,30.10
2022-08-07T10:53:21.508Z,30.10
2022-08-07T10:56:31.510Z,30.30
2022-08-07T10:59:54.614Z,30.30
2022-08-07T11:03:10.937Z,30.40
2022-08-07T11:05:52.383Z,30.40
2022-08-07T11:08:45.663Z,30.50
2022-08-07T11:11:35.584Z,30.60
2022-08-07T11:14:43.693Z,30.60
2022-08-07T11:17:46.232Z,30.70
2022-08-07T11:20:56.924Z,30.80
2022-08-07T11:23:38.602Z,30.90
2022-08-07T11:26:21.334Z,30.90
2022-08-07T11:29:41.136Z,30.90
2022-08-07T11:32:25.725Z,30.90
2022-08-07T11:35:01.228Z,31.00
2022-08-07T11:38:36.116Z,31.10
2022-08-07T11:41:28.343Z,31.20
2022-08-07T11:44:51.966Z,31.30
2022-08-07T11:47:59.485Z,31.30
2022-08-07T11:50:58.049Z,31.40
2022-08-07T11:54:01.360Z,31.50
2022-08-07T11:57:14.098Z,31.60
2022-08-07T12:00:18.944Z,31.70
2022-08-07T12:03:44.385Z,31.80
2022-08-07T12:06:51.492Z,31.80
2022-08-07T12:09:35.486Z,32.00
2022-08-07T12:12:22.807Z,32.00
2022-08-07T12:15:46.335Z,32.10
2022-08-07T12:18:29.886Z,32.20
2022-08-07T12:21:55.825Z,32.30
2022-08-07T12:25:07.453Z,32.30
2022-08-07T12:28:09.963Z,32.40
2022-08-07T12:30:46.552Z,32.60
2022-08-07T12:33:28.153Z,32.60
2022-08-07T12:35:58.888Z,32.70
2022-08-07T12:38:42.991Z,32.70
2022-08-07T12:41:15.885Z,32.70
2022-08-07T12:44:02.284Z,32.80
2022-08-07T12:47:39.621Z,32.90
2022-08-07T12:50:38.372Z,33.00
2022-08-07T12:53:28.215Z,33.00
2022-08-07T12:56:10.255Z,33.10
2022-08-07T12:58:44.289Z,33.10
2022-08-07T13:01:16.761Z,33.10
2022-08-07T13:04:31.736Z,33.20
2022-08-07T13:08:12.555Z,33.20
2022-08-07T13:10:39.886Z,33.30
2022-08-07T13:13:48.443Z,33.40
2022-08-07T13:16:43.773Z,33.40
2022-08-07T13:19:51.592Z,34.00
2022-08-07T13:22:31.630Z,33.50
2022-08-07T13:25:29.085Z,33.50
2022-08-07T13:28:10.680Z,33.60
2022-08-07T13:30:53.461Z,33.60
2022-08-07T13:34:30.242Z,33.70
2022-08-07T13:38:01.127Z,33.70
2022-08-07T13:40:55.286Z,33.80
2022-08-07T13:43:23.124Z,33.80
2022-08-07T13:46:12.937Z,33.90
2022-08-07T13:48:59.419Z,33.90
2022-08-07T13:52:04.476Z,34.00
2022-08-07T13:54:23.747Z,34.00
2022-08-07T13:56:59.451Z,34.10
2022-08-07T13:59:31.772Z,34.20
2022-08-07T14:02:12.956Z,34.20
2022-08-07T14:04:55.023Z,34.20
2022-08-07T14:07:30.609Z,34.30
2022-08-07T14:10:16.302Z,34.40
2022-08-07T14:13:00.465Z,34.90
2022-08-07T14:15:42.404Z,34.50
2022-08-07T14:18:27.337Z,34.60
2022-08-07T14:22:01.286Z,34.60
2022-08-07T14:24:06.620Z,34.70
2022-08-07T14:27:00.187Z,34.80
2022-08-07T14:30:07.464Z,34.80
2022-08-07T14:32:26.886Z,34.90
2022-08-07T14:34:54.960Z,35.00
2022-08-07T14:37:23.872Z,34.90
2022-08-07T14:40:17.392Z,35.20
2022-08-07T14:43:57.573Z,35.20
2022-08-07T14:46:02.732Z,35.20
2022-08-07T14:48:37.807Z,35.30
2022-08-07T14:54:33.000Z,35.40
2022-08-07T14:57:54.621Z,35.50
2022-08-07T15:00:06.751Z,35.60
2022-08-07T15:02:37.136Z,35.70
2022-08-07T15:05:19.848Z,36.50
2022-08-07T15:08:19.683Z,35.80
2022-08-07T15:10:58.858Z,35.90
2022-08-07T15:13:37.107Z,37.60
2022-08-07T15:19:08.389Z,36.00
2022-08-07T15:25:38.054Z,36.10
2022-08-07T15:31:06.422Z,36.10
2022-08-07T15:33:36.262Z,36.10
2022-08-07T15:42:46.419Z,36.10
2022-08-07T15:44:21.322Z,37.50
2022-08-07T15:47:09.118Z,36.20
2022-08-07T15:50:03.831Z,36.10
2022-08-07T15:52:34.413Z,36.20
2022-08-07T15:55:09.015Z,36.20
2022-08-07T15:57:48.478Z,36.10
2022-08-07T16:00:32.031Z,36.10
2022-08-07T16:03:22.179Z,36.10
2022-08-07T16:06:06.560Z,36.00
2022-08-07T16:08:38.322Z,36.00
2022-08-07T16:11:27.171Z,35.90
2022-08-07T16:14:19.349Z,35.90
2022-08-07T16:18:02.245Z,35.80
2022-08-07T16:21:44.032Z,35.70
2022-08-07T16:24:34.475Z,35.60
2022-08-07T16:27:41.585Z,35.60
2022-08-07T16:30:31.963Z,35.40
2022-08-07T16:34:01.890Z,35.40
2022-08-07T16:37:02.481Z,35.30
2022-08-07T16:40:05.977Z,35.20
2022-08-07T16:42:47.981Z,35.10
2022-08-07T16:46:34.711Z,35.00
2022-08-07T16:50:27.341Z,34.90
2022-08-07T16:52:55.677Z,34.80
2022-08-07T16:55:46.945Z,34.70
2022-08-07T16:58:54.338Z,34.60
2022-08-07T17:01:34.456Z,34.50
2022-08-07T17:05:08.534Z,34.50
2022-08-07T17:07:58.249Z,34.30
2022-08-07T17:10:38.312Z,34.30
2022-08-07T17:14:18.033Z,34.20
2022-08-07T17:16:58.360Z,34.10
2022-08-07T17:20:01.806Z,34.00
2022-08-07T17:22:45.676Z,33.80
2022-08-07T17:25:47.937Z,33.80
2022-08-07T17:28:31.303Z,33.70
2022-08-07T17:31:44.225Z,33.60
2022-08-07T17:34:40.947Z,33.50
2022-08-07T17:38:06.707Z,33.40
2022-08-07T17:40:39.611Z,33.30
2022-08-07T17:43:18.885Z,33.20
2022-08-07T17:45:57.023Z,33.00
2022-08-07T17:48:31.788Z,33.00
2022-08-07T17:51:21.362Z,33.00
2022-08-07T17:54:11.441Z,32.90
2022-08-07T17:56:55.426Z,32.80
2022-08-07T17:59:50.457Z,32.70
2022-08-07T18:02:36.394Z,32.60
2022-08-07T18:05:21.719Z,32.60
2022-08-07T18:08:31.190Z,32.50
2022-08-07T18:12:07.645Z,32.40
2022-08-07T18:14:29.888Z,32.30
2022-08-07T18:18:36.649Z,32.20
2022-08-07T18:21:04.308Z,32.20
2022-08-07T18:23:42.068Z,32.10
2022-08-07T18:26:15.298Z,32.00
2022-08-07T18:30:06.171Z,31.90
2022-08-07T18:32:39.198Z,31.90
2022-08-07T18:35:59.487Z,31.80
2022-08-07T18:40:08.226Z,31.70
2022-08-07T18:42:20.891Z,31.60
2022-08-07T18:45:44.507Z,31.50
2022-08-07T18:50:19.374Z,31.40
2022-08-07T18:52:33.416Z,31.40
2022-08-07T18:55:43.730Z,31.30
2022-08-07T18:58:42.592Z,31.20
2022-08-07T19:02:18.776Z,31.20
2022-08-07T19:04:57.601Z,31.00
2022-08-07T19:07:56.886Z,30.90
2022-08-07T19:10:52.037Z,30.90
2022-08-07T19:14:00.779Z,30.80
2022-08-07T19:17:05.460Z,30.70
2022-08-07T19:19:58.975Z,30.60
2022-08-07T19:23:57.165Z,30.60
2022-08-07T19:26:24.644Z,30.50
2022-08-07T19:31:05.681Z,30.40
2022-08-07T19:32:17.099Z,30.40
2022-08-07T19:35:01.219Z,30.20
2022-08-07T19:37:55.245Z,30.20
2022-08-07T19:40:31.007Z,30.10
2022-08-07T19:43:02.267Z,30.10
2022-08-07T19:46:09.206Z,30.00
2022-08-07T19:48:53.954Z,29.90
2022-08-07T19:51:50.781Z,29.80
2022-08-07T19:54:32.672Z,29.70
2022-08-07T19:58:00.291Z,29.60
2022-08-07T20:00:08.759Z,29.50
2022-08-07T20:02:51.543Z,29.50
2022-08-07T20:05:29.730Z,29.40
2022-08-07T20:08:11.686Z,29.30
2022-08-07T20:10:54.472Z,29.30
2022-08-07T20:13:38.189Z,29.20
2022-08-07T20:16:15.785Z,29.10
2022-08-07T20:19:02.257Z,29.00
2022-08-07T20:21:41.670Z,29.00
2022-08-07T20:24:31.940Z,28.90
2022-08-07T20:27:02.565Z,28.80
2022-08-07T20:29:48.855Z,28.80
2022-08-07T20:32:46.598Z,28.70
2022-08-07T20:35:26.217Z,28.60
2022-08-07T20:37:58.619Z,28.60
2022-08-07T20:40:32.076Z,28.50
2022-08-07T20:43:09.538Z,28.40
2022-08-07T20:46:25.606Z,28.40
2022-08-07T20:48:36.050Z,28.30
2022-08-07T20:51:09.778Z,28.20
2022-08-07T20:54:04.369Z,28.20
2022-08-07T20:56:33.491Z,28.10
2022-08-07T20:59:05.809Z,28.00
2022-08-07T21:01:36.545Z,28.00
2022-08-07T21:04:22.779Z,27.90
2022-08-07T21:06:56.956Z,27.90
2022-08-07T21:09:51.830Z,27.80
2022-08-07T21:12:28.690Z,27.70
2022-08-07T21:14:59.470Z,27.60
2022-08-07T21:18:27.899Z,27.60
2022-08-07T21:20:29.885Z,27.50
2022-08-07T21:23:08.042Z,27.40
2022-08-07T21:26:17.918Z,27.40
2022-08-07T21:28:59.350Z,27.30
2022-08-07T21:32:42.914Z,27.20
2022-08-07T21:35:02.623Z,27.10
2022-08-07T21:37:58.563Z,27.00
2022-08-07T21:41:09.619Z,27.00
2022-08-07T21:44:05.955Z,26.90
2022-08-07T21:46:52.293Z,26.80
2022-08-07T21:50:02.646Z,26.70
2022-08-07T21:53:16.228Z,26.60
2022-08-07T21:56:16.813Z,26.60
2022-08-07T21:59:22.532Z,26.60
2022-08-07T22:02:10.948Z,26.50
2022-08-07T22:04:53.967Z,26.40
2022-08-07T22:07:31.685Z,26.40
2022-08-07T22:10:14.444Z,26.30
2022-08-07T22:13:09.328Z,26.20
2022-08-07T22:16:44.188Z,26.50
2022-08-07T22:18:50.165Z,26.10
2022-08-07T22:22:01.961Z,26.10
2022-08-07T22:24:43.630Z,26.00
2022-08-07T22:27:34.206Z,26.00
2022-08-07T22:30:21.881Z,25.90
2022-08-07T22:33:15.270Z,25.80
2022-08-07T22:36:12.225Z,25.80
2022-08-07T22:38:59.398Z,25.70
2022-08-07T22:42:04.009Z,25.70
2022-08-07T22:44:32.752Z,25.60
2022-08-07T22:47:18.055Z,25.50
2022-08-07T22:50:20.495Z,25.50
2022-08-07T22:52:57.404Z,25.40
2022-08-07T22:56:08.688Z,25.40
2022-08-07T22:59:04.933Z,25.30
2022-08-07T23:02:27.820Z,25.20
2022-08-07T23:06:10.127Z,25.20
2022-08-07T23:08:56.017Z,25.10
2022-08-07T23:11:59.313Z,25.00
2022-08-07T23:15:08.943Z,25.00
2022-08-07T23:18:19.585Z,24.90
2022-08-07T23:21:36.486Z,24.80
2022-08-07T23:24:34.817Z,24.80
2022-08-07T23:27:34.528Z,24.80
2022-08-07T23:30:37.033Z,24.60
2022-08-07T23:34:34.649Z,24.60
2022-08-07T23:37:20.011Z,24.60
2022-08-07T23:40:34.579Z,24.50
2022-08-07T23:43:37.940Z,24.40
2022-08-07T23:46:51.355Z,24.30
2022-08-07T23:49:51.060Z,24.30
2022-08-07T23:53:05.781Z,24.20
2022-08-07T23:55:51.843Z,24.20
2022-08-07T23:58:59.342Z,24.10
